Terminal Aerodrome Forecast
Issued by NWS

Home | Current Version | Previous Version | Text Only | Print | Product List | Glossary On
Versions: 1 2 3 4 5 6 7 8 9 10 11 12
000
FTUS44 KTSA 281100
TAFBVO
TAF
KBVO 281120Z 2812/2912 00000KT 5SM BR SCT250
     FM281300 18005KT P6SM SCT250
     FM281700 17010KT P6SM SCT060
     FM290100 16004KT P6SM SCT250
     FM290600 18004KT P6SM SCT070 BKN120 PROB30 2906/2912 5SM -TSRA
      BKN070CB=

USA.gov is the U.S. government's official web portal to all federal, state and local government web resources and services.